METAR Data
IDs: Format: Raw Decoded Include TAF

Data at: 2116 UTC 06 Dec 2019

KAQX 062115Z AUTO 00000KT 10SM CLR 17/08 A3014 RMK AO2
KAQX 062055Z AUTO 00000KT 10SM CLR 17/08 A3013 RMK AO2
KAQX 062035Z AUTO 00000KT 10SM CLR 17/08 A3013 RMK AO2
KAQX 062015Z AUTO 00000KT 10SM CLR 16/08 A3015 RMK AO2
KAQX 061955Z AUTO 00000KT 10SM FEW050 FEW075 SCT090 16/07 A3014 RMK AO2
KAQX 061935Z AUTO 00000KT 10SM SCT044 SCT050 BKN075 17/07 A3017 RMK AO2
KAQX 061915Z AUTO 00000KT 10SM SCT044 SCT060 BKN085 17/07 A3018 RMK AO2
KAQX 061855Z AUTO 00000KT 10SM SCT045 BKN055 17/07 A3017 RMK AO2
KAQX 061835Z AUTO 00000KT 10SM BKN046 BKN055 18/06 A3018 RMK AO2
KAQX 061815Z AUTO 00000KT 10SM SCT048 SCT055 BKN110 17/06 A3018 RMK AO2
KAQX 061755Z AUTO 00000KT 10SM FEW045 FEW060 SCT110 17/06 A3018 RMK AO2
KAQX 061735Z AUTO 00000KT 10SM FEW045 FEW060 SCT120 17/07 A3019 RMK AO2
KAQX 061715Z AUTO 00000KT 10SM FEW048 SCT055 SCT065 17/06 A3019 RMK AO2
KAQX 061655Z AUTO 00000KT 10SM SCT047 17/06 A3021 RMK AO2
KAQX 061635Z AUTO 00000KT 10SM FEW048 17/06 A3021 RMK AO2
KAQX 061615Z AUTO 00000KT 10SM SCT047 BKN055 16/06 A3022 RMK AO2
KAQX 061555Z AUTO 00000KT 10SM SCT046 16/06 A3024 RMK AO2
KAQX 061535Z AUTO 00000KT 10SM CLR 15/07 A3023 RMK AO2
KAQX 061515Z AUTO 00000KT 10SM CLR 13/07 A3023 RMK AO2
KAQX 061455Z AUTO 00000KT 10SM FEW049 12/08 A3024 RMK AO2
KAQX 061435Z AUTO 00000KT 10SM SCT048 SCT060 11/08 A3025 RMK AO2
KAQX 061415Z AUTO 00000KT 10SM BKN048 OVC060 10/07 A3025 RMK AO2
KAQX 061355Z AUTO 00000KT 10SM BKN050 BKN055 08/07 A3024 RMK AO2
KAQX 061335Z AUTO 00000KT 10SM SCT050 BKN055 06/05 A3024 RMK AO2
KAQX 061315Z AUTO 00000KT 10SM BKN048 OVC055 04/04 A3024 RMK AO2
KAQX 061255Z AUTO 00000KT 10SM SCT048 03/02 A3023 RMK AO2
KAQX 061235Z AUTO 00000KT 10SM FEW048 02/01 A3022 RMK AO2
KAQX 061215Z AUTO 00000KT 10SM CLR 02/02 A3022 RMK AO2
KAQX 061155Z AUTO 00000KT 10SM CLR 01/01 A3021 RMK AO2
KAQX 061135Z AUTO 00000KT 10SM CLR 02/01 A3022 RMK AO2
KAQX 061115Z AUTO 00000KT 10SM CLR 02/01 A3022 RMK AO2
KAQX 061055Z AUTO 00000KT 10SM CLR 02/01 A3022 RMK AO2
KAQX 061035Z AUTO 00000KT 10SM CLR 01/01 A3021 RMK AO2
KAQX 061015Z AUTO 00000KT 10SM CLR 02/01 A3021 RMK AO2
KAQX 060955Z AUTO 00000KT 10SM CLR 02/01 A3021 RMK AO2
KAQX 060935Z AUTO 00000KT 10SM CLR 01/01 A3021 RMK AO2
KAQX 060915Z AUTO 00000KT 10SM CLR 02/01 A3021 RMK AO2
KAQX 060855Z AUTO 00000KT 10SM CLR 02/02 A3022 RMK AO2
KAQX 060835Z AUTO 00000KT 10SM CLR 02/02 A3022 RMK AO2
KAQX 060815Z AUTO 00000KT 10SM CLR 02/01 A3022 RMK AO2
KAQX 060755Z AUTO 00000KT 10SM CLR 02/02 A3022 RMK AO2
KAQX 060735Z AUTO 00000KT 10SM CLR 02/01 A3022 RMK AO2
KAQX 060715Z AUTO 00000KT 10SM CLR 02/02 A3021 RMK AO2
KAQX 060655Z AUTO 00000KT 10SM CLR 03/02 A3021 RMK AO2
KAQX 060635Z AUTO 00000KT 10SM CLR 03/02 A3020 RMK AO2
KAQX 060615Z AUTO 00000KT 10SM CLR 03/02 A3019 RMK AO2
KAQX 060555Z AUTO 00000KT 10SM CLR 03/02 A3020 RMK AO2
KAQX 060535Z AUTO 00000KT 10SM CLR 03/02 A3020 RMK AO2
KAQX 060515Z AUTO 00000KT 10SM CLR 03/02 A3021 RMK AO2
KAQX 060455Z AUTO 00000KT 10SM CLR 04/02 A3021 RMK AO2
KAQX 060435Z AUTO 00000KT 10SM CLR 03/02 A3021 RMK AO2
KAQX 060415Z AUTO 00000KT 10SM CLR 04/02 A3021 RMK AO2
KAQX 060355Z AUTO 00000KT 10SM CLR 04/03 A3021 RMK AO2
KAQX 060335Z AUTO 00000KT 10SM CLR 04/02 A3021 RMK AO2
KAQX 060315Z AUTO 00000KT 10SM CLR 05/03 A3020 RMK AO2
KAQX 060255Z AUTO 00000KT 10SM FEW026 05/03 A3019 RMK AO2
KAQX 060235Z AUTO 00000KT 10SM SCT026 05/03 A3019 RMK AO2
KAQX 060215Z AUTO 00000KT 10SM SCT026 06/03 A3018 RMK AO2
KAQX 060155Z AUTO 00000KT 10SM BKN026 06/03 A3018 RMK AO2
KAQX 060135Z AUTO 00000KT 10SM OVC026 07/02 A3018 RMK AO2
KAQX 060115Z AUTO 00000KT 9SM SCT028 06/03 A3018 RMK AO2
KAQX 060055Z AUTO 00000KT 9SM CLR 06/02 A3017 RMK AO2
KAQX 060035Z AUTO 00000KT 6SM HZ CLR 08/03 A3017 RMK AO2
KAQX 060015Z AUTO 00000KT 7SM CLR 08/02 A3016 RMK AO2
KAQX 052355Z AUTO 00000KT 10SM CLR 09/03 A3016 RMK AO2
KAQX 052335Z AUTO 00000KT 10SM CLR 10/03 A3015 RMK AO2
KAQX 052315Z AUTO 00000KT 10SM CLR 11/03 A3015 RMK AO2
KAQX 052255Z AUTO 00000KT 10SM CLR 12/02 A3014 RMK AO2
KAQX 052235Z AUTO 00000KT 10SM CLR 13/01 A3013 RMK AO2
KAQX 052215Z AUTO 00000KT 10SM CLR 14/02 A3012 RMK AO2
KAQX 052155Z AUTO 00000KT 10SM CLR 16/M01 A3011 RMK AO2
KAQX 052135Z AUTO 00000KT 10SM CLR 18/M02 A3011 RMK AO2
KAQX 052115Z AUTO 00000KT 10SM CLR 18/M04 A3011 RMK AO2
KAQX 052055Z AUTO 00000KT 10SM CLR 19/M04 A3010 RMK AO2
KAQX 052035Z AUTO 00000KT 10SM CLR 19/M05 A3009 RMK AO2
KAQX 052015Z AUTO 00000KT 10SM CLR 19/M05 A3009 RMK AO2
KAQX 051955Z AUTO 00000KT 10SM CLR 19/M05 A3008 RMK AO2
KAQX 051935Z AUTO 00000KT 10SM CLR 19/M05 A3008 RMK AO2
KAQX 051915Z AUTO 03003KT 10SM CLR 18/M05 A3008 RMK AO2
KAQX 051855Z AUTO 00000KT 10SM CLR 18/M04 A3008 RMK AO2
KAQX 051835Z AUTO 00000G10KT 10SM CLR 18/M05 A3009 RMK AO2
KAQX 051815Z AUTO 02003G10KT 10SM CLR 18/M05 A3009 RMK AO2
KAQX 051755Z AUTO 34004KT 10SM CLR 18/M04 A3009 RMK AO2
KAQX 051735Z AUTO 04004KT 10SM CLR 17/M04 A3010 RMK AO2
KAQX 051715Z AUTO 02004KT 10SM CLR 17/M02 A3010 RMK AO2
KAQX 051655Z AUTO VRB04KT 10SM CLR 17/M02 A3011 RMK AO2
KAQX 051635Z AUTO 35004KT 10SM CLR 16/M01 A3011 RMK AO2
KAQX 051615Z AUTO 35005G10KT 10SM CLR 16/M01 A3012 RMK AO2
KAQX 051555Z AUTO 34004G10KT 10SM CLR 15/M00 A3012 RMK AO2
KAQX 051535Z AUTO 35007KT 10SM CLR 14/00 A3012 RMK AO2
KAQX 051515Z AUTO 35007KT 310V010 10SM CLR 13/00 A3011 RMK AO2
KAQX 051455Z AUTO VRB05KT 10SM CLR 12/01 A3011 RMK AO2
KAQX 051435Z AUTO 31006KT 10SM CLR 12/01 A3010 RMK AO2
KAQX 051415Z AUTO 00000KT 10SM CLR 10/02 A3008 RMK AO2
KAQX 051355Z AUTO VRB03KT 10SM CLR 09/02 A3007 RMK AO2
KAQX 051335Z AUTO 00000KT 10SM CLR 08/02 A3007 RMK AO2
KAQX 051315Z AUTO 00000KT 10SM CLR 06/02 A3006 RMK AO2
KAQX 051255Z AUTO 00000KT 10SM CLR 05/02 A3005 RMK AO2
KAQX 051235Z AUTO 00000KT 10SM CLR 05/02 A3004 RMK AO2
KAQX 051215Z AUTO 00000KT 10SM CLR 05/02 A3003 RMK AO2
KAQX 051155Z AUTO 00000KT 10SM CLR 05/02 A3002 RMK AO2
KAQX 051135Z AUTO 00000KT 10SM CLR 05/02 A3001 RMK AO2
KAQX 051115Z AUTO 00000KT 10SM CLR 07/01 A3001 RMK AO2
KAQX 051055Z AUTO 00000KT 10SM CLR 07/01 A3000 RMK AO2
KAQX 051035Z AUTO 00000KT 10SM CLR 07/01 A2999 RMK AO2
KAQX 051015Z AUTO 00000KT 10SM CLR 07/02 A2998 RMK AO2
KAQX 050955Z AUTO 00000KT 10SM CLR 06/03 A2997 RMK AO2
KAQX 050935Z AUTO 00000KT 10SM CLR 08/01 A2996 RMK AO2